createdAt,value
2023-01-27T00:01:10.915Z,100855.05
2023-01-27T00:03:38.568Z,100857.19
2023-01-27T00:06:06.519Z,100855.70
2023-01-27T00:08:34.506Z,100857.54
2023-01-27T00:11:20.738Z,100855.05
2023-01-27T00:13:48.647Z,100852.65
2023-01-27T00:16:16.471Z,100852.78
2023-01-27T00:18:44.268Z,100853.81
2023-01-27T00:21:30.716Z,100847.89
2023-01-27T00:24:17.191Z,100860.06
2023-01-27T00:26:44.899Z,100861.00
2023-01-27T00:29:13.442Z,100859.70
2023-01-27T00:31:59.750Z,100860.86
2023-01-27T00:34:27.487Z,100860.34
2023-01-27T00:36:55.205Z,100865.46
2023-01-27T00:39:23.008Z,100866.59
2023-01-27T00:41:50.699Z,100861.38
2023-01-27T00:44:18.310Z,100865.94
2023-01-27T00:46:46.065Z,100869.30
2023-01-27T00:49:13.821Z,100871.09
2023-01-27T00:51:42.239Z,100869.71
2023-01-27T00:54:10.327Z,100869.83
2023-01-27T00:56:38.542Z,100870.45
2023-01-27T00:59:06.726Z,100868.45
2023-01-27T01:01:35.186Z,100871.91
2023-01-27T01:04:03.649Z,100872.77
2023-01-27T01:06:31.874Z,100870.11
2023-01-27T01:08:59.625Z,100869.88
2023-01-27T01:11:27.687Z,100870.81
2023-01-27T01:13:56.560Z,100870.23
2023-01-27T01:16:25.628Z,100870.31
2023-01-27T01:18:54.099Z,100870.52
2023-01-27T01:21:22.028Z,100869.29
2023-01-27T01:23:50.134Z,100869.86
2023-01-27T01:26:18.720Z,100870.50
2023-01-27T01:28:47.092Z,100868.15
2023-01-27T01:31:17.901Z,100863.93
2023-01-27T01:33:47.311Z,100861.52
2023-01-27T01:36:18.673Z,100865.45
2023-01-27T01:38:46.840Z,100861.52
2023-01-27T01:41:18.459Z,100865.00
2023-01-27T01:43:48.268Z,100863.55
2023-01-27T01:46:16.826Z,100862.25
2023-01-27T01:48:58.463Z,100859.45
2023-01-27T01:51:40.240Z,100857.18
2023-01-27T01:54:17.036Z,100860.23
2023-01-27T01:56:58.138Z,100858.57
2023-01-27T01:59:35.468Z,100862.72
2023-01-27T02:02:07.378Z,100864.83
2023-01-27T02:04:42.511Z,100869.36
2023-01-27T02:07:19.894Z,100869.92
2023-01-27T02:09:47.787Z,100865.73
2023-01-27T02:12:15.582Z,100863.24
2023-01-27T02:14:43.306Z,100860.65
2023-01-27T02:17:13.058Z,100863.69
2023-01-27T02:20:05.249Z,100867.09
2023-01-27T02:22:35.894Z,100865.88
2023-01-27T02:25:15.519Z,100862.94
2023-01-27T02:27:43.418Z,100862.80
2023-01-27T02:30:11.459Z,100864.34
2023-01-27T02:32:40.206Z,100865.71
2023-01-27T02:35:14.170Z,100866.52
2023-01-27T02:37:42.438Z,100867.66
2023-01-27T02:40:12.363Z,100868.01
2023-01-27T02:42:39.970Z,100870.59
2023-01-27T02:45:08.033Z,100869.36
2023-01-27T02:47:35.981Z,100872.40
2023-01-27T02:50:03.929Z,100874.31
2023-01-27T02:52:31.914Z,100870.85
2023-01-27T02:54:59.826Z,100871.48
2023-01-27T02:57:27.555Z,100868.55
2023-01-27T03:00:13.273Z,100873.17
2023-01-27T03:02:41.041Z,100875.11
2023-01-27T03:05:09.102Z,100877.13
2023-01-27T03:07:36.769Z,100873.75
2023-01-27T03:10:04.819Z,100869.85
2023-01-27T03:12:32.495Z,100871.23
2023-01-27T03:15:19.000Z,100879.54
2023-01-27T03:18:05.759Z,100876.36
2023-01-27T03:20:33.932Z,100872.38
2023-01-27T03:23:01.673Z,100877.59
2023-01-27T03:25:29.485Z,100877.40
2023-01-27T03:27:57.698Z,100871.41
2023-01-27T03:30:48.527Z,100872.17
2023-01-27T03:33:23.138Z,100875.13
2023-01-27T03:36:20.845Z,100880.61
2023-01-27T03:39:09.291Z,100878.00
2023-01-27T03:41:55.732Z,100876.80
2023-01-27T03:44:44.993Z,100877.59
2023-01-27T03:47:12.599Z,100875.33
2023-01-27T03:49:40.315Z,100878.31
2023-01-27T03:52:07.965Z,100880.02
2023-01-27T03:54:35.625Z,100881.11
2023-01-27T03:57:06.145Z,100878.48
2023-01-27T03:59:34.292Z,100881.00
2023-01-27T04:02:20.916Z,100880.02
2023-01-27T04:05:07.280Z,100879.68
2023-01-27T04:07:36.221Z,100878.30
2023-01-27T04:10:05.323Z,100883.98
2023-01-27T04:12:33.005Z,100885.49
2023-01-27T04:15:00.671Z,100891.05
2023-01-27T04:17:28.350Z,100889.51
2023-01-27T04:19:56.214Z,100887.34
2023-01-27T04:22:23.805Z,100883.94
2023-01-27T04:24:51.546Z,100888.46
2023-01-27T04:27:20.378Z,100888.27
2023-01-27T04:29:48.714Z,100887.27
2023-01-27T04:32:16.385Z,100893.33
2023-01-27T04:34:43.963Z,100900.38
2023-01-27T04:37:11.810Z,100899.61
2023-01-27T04:39:41.306Z,100895.06
2023-01-27T04:42:09.002Z,100897.94
2023-01-27T04:44:36.669Z,100904.05
2023-01-27T04:47:04.355Z,100905.52
2023-01-27T04:49:31.998Z,100908.63
2023-01-27T04:51:59.688Z,100909.45
2023-01-27T04:54:27.287Z,100912.49
2023-01-27T04:56:58.548Z,100910.27
2023-01-27T04:59:26.923Z,100908.34
2023-01-27T05:01:54.871Z,100907.52
2023-01-27T05:04:22.786Z,100909.06
2023-01-27T05:06:50.539Z,100908.68
2023-01-27T05:09:18.248Z,100911.30
2023-01-27T05:11:45.902Z,100910.42
2023-01-27T05:14:14.729Z,100912.45
2023-01-27T05:16:42.516Z,100913.59
2023-01-27T05:19:10.143Z,100913.77
2023-01-27T05:21:37.833Z,100918.95
2023-01-27T05:24:05.723Z,100920.67
2023-01-27T05:26:33.453Z,100920.27
2023-01-27T05:29:01.154Z,100919.73
2023-01-27T05:31:31.750Z,100927.80
2023-01-27T05:34:02.023Z,100929.77
2023-01-27T05:36:30.440Z,100935.94
2023-01-27T05:38:59.139Z,100937.45
2023-01-27T05:41:31.069Z,100940.05
2023-01-27T05:43:58.868Z,100941.98
2023-01-27T05:46:29.331Z,100941.23
2023-01-27T05:49:00.385Z,100942.05
2023-01-27T05:51:33.850Z,100935.70
2023-01-27T05:54:01.659Z,100940.96
2023-01-27T05:56:29.425Z,100941.79
2023-01-27T05:58:58.327Z,100944.53
2023-01-27T06:01:29.284Z,100945.36
2023-01-27T06:03:57.011Z,100940.29
2023-01-27T06:06:27.170Z,100939.19
2023-01-27T06:08:55.077Z,100941.34
2023-01-27T06:11:24.318Z,100945.98
2023-01-27T06:13:53.116Z,100954.20
2023-01-27T06:16:22.356Z,100955.08
2023-01-27T06:18:50.308Z,100957.91
2023-01-27T06:21:18.438Z,100959.91
2023-01-27T06:23:46.169Z,100968.02
2023-01-27T06:26:18.895Z,100970.21
2023-01-27T06:28:46.753Z,100971.18
2023-01-27T06:31:17.384Z,100973.98
2023-01-27T06:33:45.334Z,100974.60
2023-01-27T06:36:18.798Z,100978.19
2023-01-27T06:38:47.084Z,100981.58
2023-01-27T06:41:15.293Z,100982.96
2023-01-27T06:43:42.945Z,100980.77
2023-01-27T06:46:10.769Z,100985.80
2023-01-27T06:48:38.453Z,100987.00
2023-01-27T06:51:06.853Z,100986.30
2023-01-27T06:53:37.222Z,100990.84
2023-01-27T06:56:05.976Z,100991.94
2023-01-27T06:58:33.650Z,100993.48
2023-01-27T07:01:01.623Z,100999.48
2023-01-27T07:03:29.859Z,101000.46
2023-01-27T07:05:58.227Z,100999.77
2023-01-27T07:08:26.912Z,100998.52
2023-01-27T07:10:54.626Z,100997.91
2023-01-27T07:13:22.597Z,101002.58
2023-01-27T07:15:55.449Z,101005.77
2023-01-27T07:18:23.403Z,101002.96
2023-01-27T07:20:51.553Z,101003.98
2023-01-27T07:23:19.216Z,101006.81
2023-01-27T07:25:46.850Z,101003.97
2023-01-27T07:28:14.505Z,101006.92
2023-01-27T07:30:43.985Z,101002.61
2023-01-27T07:33:14.414Z,101004.36
2023-01-27T07:35:43.202Z,101008.66
2023-01-27T07:38:11.150Z,101006.00
2023-01-27T07:40:38.840Z,101004.64
2023-01-27T07:43:06.652Z,101004.25
2023-01-27T07:45:35.683Z,101005.63
2023-01-27T07:48:07.035Z,101012.38
2023-01-27T07:50:36.208Z,101015.06
2023-01-27T07:53:05.236Z,101013.17
2023-01-27T07:55:33.994Z,101006.29
2023-01-27T07:58:02.243Z,101004.36
2023-01-27T08:00:30.880Z,101006.21
2023-01-27T08:02:59.708Z,101005.30
2023-01-27T08:05:28.462Z,101008.64
2023-01-27T08:07:58.573Z,101011.20
2023-01-27T08:10:26.709Z,101008.55
2023-01-27T08:12:54.415Z,101013.48
2023-01-27T08:15:22.805Z,101013.84
2023-01-27T08:17:54.981Z,101011.97
2023-01-27T08:20:24.401Z,101008.68
2023-01-27T08:22:52.732Z,101011.49
2023-01-27T08:25:20.595Z,101015.05
2023-01-27T08:27:50.720Z,101011.37
2023-01-27T08:30:19.347Z,101014.94
2023-01-27T08:32:47.799Z,101017.34
2023-01-27T08:35:15.622Z,101019.02
2023-01-27T08:37:43.232Z,101019.43
2023-01-27T08:40:11.923Z,101018.66
2023-01-27T08:42:39.734Z,101020.18
2023-01-27T08:45:08.840Z,101019.62
2023-01-27T08:47:36.534Z,101025.77
2023-01-27T08:50:04.376Z,101024.08
2023-01-27T08:52:32.129Z,101020.89
2023-01-27T08:55:00.462Z,101022.08
2023-01-27T08:57:28.353Z,101025.18
2023-01-27T08:59:55.968Z,101020.98
2023-01-27T09:02:24.382Z,101019.25
2023-01-27T09:04:52.242Z,101018.46
2023-01-27T09:07:19.981Z,101018.09
2023-01-27T09:09:48.487Z,101021.68
2023-01-27T09:12:16.595Z,101024.87
2023-01-27T09:14:44.344Z,101027.39
2023-01-27T09:17:12.013Z,101024.55
2023-01-27T09:19:39.739Z,101028.76
2023-01-27T09:22:07.437Z,101026.02
2023-01-27T09:24:35.083Z,101028.44
2023-01-27T09:27:02.777Z,101024.29
2023-01-27T09:29:31.105Z,101028.64
2023-01-27T09:31:59.411Z,101022.21
2023-01-27T09:34:27.177Z,101019.39
2023-01-27T09:37:01.277Z,101021.93
2023-01-27T09:39:31.292Z,101024.38
2023-01-27T09:42:08.899Z,101020.45
2023-01-27T09:45:07.652Z,101021.75
2023-01-27T09:47:46.497Z,101014.18
2023-01-27T09:50:20.352Z,101012.39
2023-01-27T09:52:57.802Z,101018.98
2023-01-27T09:55:54.893Z,101022.10
2023-01-27T09:58:31.415Z,101024.84
2023-01-27T10:01:12.081Z,101018.67
2023-01-27T10:04:12.729Z,101026.39
2023-01-27T10:06:52.743Z,101022.45
2023-01-27T10:09:23.143Z,101026.52
2023-01-27T10:12:09.232Z,101023.58
2023-01-27T10:14:39.580Z,101027.89
2023-01-27T10:17:15.073Z,101030.65
2023-01-27T10:20:05.575Z,101033.98
2023-01-27T10:22:50.393Z,101039.71
2023-01-27T10:25:33.032Z,101041.17
2023-01-27T10:28:11.094Z,101037.20
2023-01-27T10:30:56.128Z,101034.11
2023-01-27T10:33:36.429Z,101031.28
2023-01-27T10:36:16.771Z,101033.09
2023-01-27T10:38:52.278Z,101032.61
2023-01-27T10:41:51.267Z,101027.27
2023-01-27T10:44:35.486Z,101030.55
2023-01-27T10:47:09.251Z,101028.08
2023-01-27T10:50:01.728Z,101027.98
2023-01-27T10:52:48.976Z,101033.41
2023-01-27T10:55:22.531Z,101035.79
2023-01-27T10:58:04.750Z,101041.81
2023-01-27T11:01:18.186Z,101039.21
2023-01-27T11:03:34.698Z,101036.95
2023-01-27T11:06:12.357Z,101034.20
2023-01-27T11:08:44.986Z,101033.88
2023-01-27T11:11:35.789Z,101031.21
2023-01-27T11:14:12.601Z,101027.38
2023-01-27T11:16:45.838Z,101017.84
2023-01-27T11:19:42.498Z,101016.77
2023-01-27T11:22:23.101Z,101015.40
2023-01-27T11:25:14.850Z,101018.46
2023-01-27T11:27:54.415Z,101015.69
2023-01-27T11:30:32.346Z,101014.83
2023-01-27T11:33:11.467Z,101011.73
2023-01-27T11:35:39.166Z,101013.59
2023-01-27T11:38:15.683Z,101013.36
2023-01-27T11:40:45.819Z,101011.25
2023-01-27T11:43:18.935Z,101007.97
2023-01-27T11:45:48.457Z,101009.04
2023-01-27T11:48:18.448Z,101004.66
2023-01-27T11:50:46.878Z,101001.38
2023-01-27T11:53:22.741Z,101004.98
2023-01-27T11:55:57.374Z,101003.77
2023-01-27T11:58:26.482Z,101008.86
2023-01-27T12:00:59.039Z,101009.23
2023-01-27T12:03:42.299Z,101008.52
2023-01-27T12:06:33.776Z,101010.87
2023-01-27T12:09:01.603Z,101010.87
2023-01-27T12:11:31.197Z,101011.37
2023-01-27T12:14:01.656Z,101008.16
2023-01-27T12:16:42.798Z,101012.91
2023-01-27T12:19:25.344Z,101010.93
2023-01-27T12:21:58.041Z,101014.69
2023-01-27T12:24:38.429Z,101009.85
2023-01-27T12:27:07.526Z,101008.87
2023-01-27T12:29:45.026Z,101010.75
2023-01-27T12:32:21.514Z,101007.81
2023-01-27T12:34:52.680Z,101008.29
2023-01-27T12:37:29.294Z,101009.29
2023-01-27T12:40:02.888Z,101014.11
2023-01-27T12:42:36.514Z,101019.85
2023-01-27T12:45:22.129Z,101015.30
2023-01-27T12:48:10.195Z,101017.23
2023-01-27T12:50:38.747Z,101020.58
2023-01-27T12:53:23.597Z,101016.77
2023-01-27T12:56:01.508Z,101018.88
2023-01-27T12:58:55.302Z,101012.23
2023-01-27T13:01:23.077Z,101018.02
2023-01-27T13:04:18.494Z,101016.11
2023-01-27T13:06:55.581Z,101015.95
2023-01-27T13:09:23.341Z,101011.64
2023-01-27T13:11:52.244Z,101007.17
2023-01-27T13:14:20.132Z,101008.09
2023-01-27T13:16:53.272Z,101008.91
2023-01-27T13:19:29.831Z,101012.38
2023-01-27T13:21:58.290Z,101010.48
2023-01-27T13:24:37.165Z,101011.05
2023-01-27T13:27:10.909Z,101014.34
2023-01-27T13:29:40.739Z,101017.85
2023-01-27T13:32:18.309Z,101022.22
2023-01-27T13:34:50.513Z,101021.29
2023-01-27T13:37:36.788Z,101023.15
2023-01-27T13:40:22.471Z,101024.59
2023-01-27T13:43:01.466Z,101028.89
2023-01-27T13:45:47.405Z,101033.88
2023-01-27T13:48:28.427Z,101037.55
2023-01-27T13:51:06.818Z,101037.96
2023-01-27T13:53:34.866Z,101039.90
2023-01-27T13:56:11.641Z,101039.61
2023-01-27T13:58:51.322Z,101039.73
2023-01-27T14:01:37.917Z,101045.61
2023-01-27T14:04:24.229Z,101048.86
2023-01-27T14:06:54.935Z,101050.45
2023-01-27T14:09:44.147Z,101049.27
2023-01-27T14:12:27.385Z,101042.67
2023-01-27T14:14:59.043Z,101046.88
2023-01-27T14:17:38.921Z,101042.84
2023-01-27T14:20:37.346Z,101044.88
2023-01-27T14:23:05.048Z,101049.16
2023-01-27T14:25:57.999Z,101049.51
2023-01-27T14:28:33.677Z,101053.19
2023-01-27T14:31:11.753Z,101053.70
2023-01-27T14:34:00.722Z,101054.98
2023-01-27T14:36:48.598Z,101058.27
2023-01-27T14:39:29.171Z,101053.70
2023-01-27T14:42:26.056Z,101060.77
2023-01-27T14:45:15.998Z,101062.55
2023-01-27T14:48:13.202Z,101064.94
2023-01-27T14:50:59.513Z,101060.73
2023-01-27T14:53:58.820Z,101060.39
2023-01-27T14:56:59.962Z,101060.16
2023-01-27T14:59:37.025Z,101062.75
2023-01-27T15:02:17.593Z,101061.13
2023-01-27T15:05:15.366Z,101058.91
2023-01-27T15:07:48.739Z,101057.71
2023-01-27T15:10:27.727Z,101054.66
2023-01-27T15:13:36.293Z,101054.55
2023-01-27T15:16:22.925Z,101055.36
2023-01-27T15:19:26.460Z,101048.71
2023-01-27T15:21:54.044Z,101053.00
2023-01-27T15:24:45.394Z,101054.15
2023-01-27T15:27:13.468Z,101054.12
2023-01-27T15:29:41.381Z,101057.52
2023-01-27T15:32:26.403Z,101059.73
2023-01-27T15:35:29.224Z,101066.89
2023-01-27T15:38:07.747Z,101073.59
2023-01-27T15:40:57.811Z,101079.10
2023-01-27T15:43:30.120Z,101083.83
2023-01-27T15:46:18.594Z,101083.59
2023-01-27T15:48:46.669Z,101081.64
2023-01-27T15:51:20.301Z,101079.94
2023-01-27T15:53:54.875Z,101081.56
2023-01-27T15:56:41.622Z,101082.30
2023-01-27T15:59:15.980Z,101086.48
2023-01-27T16:01:43.683Z,101083.81
2023-01-27T16:04:11.331Z,101079.87
2023-01-27T16:06:52.762Z,101087.07
2023-01-27T16:09:34.642Z,101088.52
2023-01-27T16:12:31.446Z,101092.43
2023-01-27T16:15:01.869Z,101094.73
2023-01-27T16:17:33.315Z,101089.70
2023-01-27T16:20:20.991Z,101093.84
2023-01-27T16:22:58.329Z,101091.80
2023-01-27T16:25:41.198Z,101094.38
2023-01-27T16:28:20.003Z,101099.55
2023-01-27T16:30:57.282Z,101095.06
2023-01-27T16:33:31.094Z,101102.99
2023-01-27T16:36:06.457Z,101101.91
2023-01-27T16:38:37.005Z,101095.59
2023-01-27T16:41:16.156Z,101105.70
2023-01-27T16:43:48.689Z,101100.42
2023-01-27T16:46:38.133Z,101096.40
2023-01-27T16:49:32.222Z,101105.98
2023-01-27T16:52:05.124Z,101100.86
2023-01-27T16:54:40.038Z,101098.85
2023-01-27T16:57:23.463Z,101100.85
2023-01-27T16:59:52.251Z,101097.55
2023-01-27T17:02:23.934Z,101099.98
2023-01-27T17:04:56.127Z,101096.80
2023-01-27T17:07:23.858Z,101096.00
2023-01-27T17:09:54.850Z,101100.70
2023-01-27T17:12:33.257Z,101101.65
2023-01-27T17:15:15.561Z,101111.23
2023-01-27T17:17:43.770Z,101111.48
2023-01-27T17:20:23.832Z,101108.08
2023-01-27T17:22:54.369Z,101112.21
2023-01-27T17:25:41.669Z,101112.11
2023-01-27T17:28:16.906Z,101108.27
2023-01-27T17:30:46.822Z,101112.64
2023-01-27T17:33:18.672Z,101112.10
2023-01-27T17:35:52.479Z,101114.90
2023-01-27T17:38:25.957Z,101116.59
2023-01-27T17:40:55.080Z,101115.43
2023-01-27T17:43:30.989Z,101117.72
2023-01-27T17:46:14.924Z,101122.11
2023-01-27T17:48:52.265Z,101123.83
2023-01-27T17:51:25.585Z,101120.92
2023-01-27T17:53:54.554Z,101123.19
2023-01-27T17:56:27.841Z,101122.08
2023-01-27T17:59:03.021Z,101122.27
2023-01-27T18:01:31.657Z,101127.64
2023-01-27T18:04:00.164Z,101127.79
2023-01-27T18:06:32.105Z,101135.06
2023-01-27T18:09:14.573Z,101128.70
2023-01-27T18:12:01.311Z,101136.02
2023-01-27T18:14:34.252Z,101136.58
2023-01-27T18:17:23.081Z,101134.05
2023-01-27T18:19:53.188Z,101134.48
2023-01-27T18:22:22.452Z,101141.59
2023-01-27T18:24:53.442Z,101141.01
2023-01-27T18:27:28.065Z,101146.27
2023-01-27T18:30:00.717Z,101148.58
2023-01-27T18:32:37.658Z,101143.96
2023-01-27T18:35:25.316Z,101144.33
2023-01-27T18:38:01.625Z,101146.44
2023-01-27T18:40:32.924Z,101142.27
2023-01-27T18:43:02.483Z,101147.52
2023-01-27T18:45:31.036Z,101149.95
2023-01-27T18:47:59.564Z,101150.56
2023-01-27T18:50:28.145Z,101153.85
2023-01-27T18:52:55.755Z,101155.28
2023-01-27T18:55:28.918Z,101154.45
2023-01-27T18:57:58.780Z,101156.69
2023-01-27T19:00:30.339Z,101158.63
2023-01-27T19:03:01.051Z,101161.55
2023-01-27T19:05:32.140Z,101162.50
2023-01-27T19:08:00.709Z,101164.94
2023-01-27T19:10:32.447Z,101167.77
2023-01-27T19:13:02.617Z,101173.14
2023-01-27T19:15:37.360Z,101171.81
2023-01-27T19:18:24.314Z,101179.14
2023-01-27T19:20:53.214Z,101184.27
2023-01-27T19:23:21.653Z,101183.02
2023-01-27T19:25:53.282Z,101184.61
2023-01-27T19:28:29.061Z,101184.48
2023-01-27T19:30:57.745Z,101185.26
2023-01-27T19:33:28.054Z,101189.81
2023-01-27T19:36:14.062Z,101185.90
2023-01-27T19:38:41.770Z,101183.65
2023-01-27T19:41:10.753Z,101192.23
2023-01-27T19:43:38.515Z,101190.63
2023-01-27T19:46:13.762Z,101194.98
2023-01-27T19:48:41.775Z,101194.66
2023-01-27T19:51:11.960Z,101196.00
2023-01-27T19:53:39.670Z,101199.52
2023-01-27T19:56:17.156Z,101202.14
2023-01-27T19:58:47.188Z,101199.27
2023-01-27T20:01:15.033Z,101204.52
2023-01-27T20:03:42.823Z,101212.56
2023-01-27T20:06:17.534Z,101214.23
2023-01-27T20:08:45.214Z,101216.42
2023-01-27T20:11:34.593Z,101218.78
2023-01-27T20:14:26.141Z,101215.86
2023-01-27T20:16:53.829Z,101219.30
2023-01-27T20:19:21.495Z,101224.20
2023-01-27T20:21:50.151Z,101231.66
2023-01-27T20:24:19.771Z,101233.63
2023-01-27T20:26:47.843Z,101235.39
2023-01-27T20:29:15.598Z,101236.53
2023-01-27T20:31:43.543Z,101241.82
2023-01-27T20:34:11.499Z,101240.58
2023-01-27T20:36:39.301Z,101237.79
2023-01-27T20:39:06.998Z,101239.94
2023-01-27T20:41:34.620Z,101239.15
2023-01-27T20:44:02.365Z,101237.20
2023-01-27T20:46:30.745Z,101238.38
2023-01-27T20:48:58.998Z,101237.83
2023-01-27T20:51:26.875Z,101241.23
2023-01-27T20:53:54.885Z,101239.32
2023-01-27T20:56:23.914Z,101240.16
2023-01-27T20:58:51.763Z,101237.54
2023-01-27T21:01:21.978Z,101247.30
2023-01-27T21:03:50.581Z,101237.88
2023-01-27T21:06:21.732Z,101241.87
2023-01-27T21:08:49.732Z,101245.90
2023-01-27T21:11:20.070Z,101244.17
2023-01-27T21:13:48.822Z,101242.86
2023-01-27T21:16:16.649Z,101240.44
2023-01-27T21:18:44.583Z,101242.91
2023-01-27T21:21:28.022Z,101243.37
2023-01-27T21:23:57.395Z,101239.83
2023-01-27T21:26:25.147Z,101237.63
2023-01-27T21:28:53.243Z,101235.11
2023-01-27T21:31:22.163Z,101230.61
2023-01-27T21:33:50.752Z,101229.36
2023-01-27T21:36:19.410Z,101230.38
2023-01-27T21:38:50.333Z,101230.59
2023-01-27T21:41:57.974Z,101230.34
2023-01-27T21:44:46.763Z,101226.95
2023-01-27T21:47:17.748Z,101228.73
2023-01-27T21:50:02.841Z,101229.85
2023-01-27T21:52:35.580Z,101224.76
2023-01-27T21:55:06.291Z,101226.98
2023-01-27T21:57:34.879Z,101226.17
2023-01-27T22:00:05.301Z,101226.27
2023-01-27T22:02:40.047Z,101223.41
2023-01-27T22:05:09.618Z,101222.17
2023-01-27T22:07:38.529Z,101218.97
2023-01-27T22:10:08.996Z,101222.71
2023-01-27T22:12:36.638Z,101212.56
2023-01-27T22:15:06.445Z,101206.61
2023-01-27T22:17:34.839Z,101208.77
2023-01-27T22:20:04.019Z,101210.02
2023-01-27T22:22:31.761Z,101204.39
2023-01-27T22:24:59.476Z,101207.73
2023-01-27T22:27:27.091Z,101205.52
2023-01-27T22:29:54.719Z,101205.45
2023-01-27T22:32:22.479Z,101206.55
2023-01-27T22:34:50.714Z,101208.27
2023-01-27T22:37:18.425Z,101204.97
2023-01-27T22:39:46.064Z,101208.48
2023-01-27T22:42:14.494Z,101208.60
2023-01-27T22:44:42.145Z,101204.09
2023-01-27T22:47:09.772Z,101206.55
2023-01-27T22:49:37.471Z,101202.36
2023-01-27T22:52:05.166Z,101203.67
2023-01-27T22:54:32.827Z,101200.27
2023-01-27T22:57:01.227Z,101195.71
2023-01-27T22:59:29.002Z,101196.69
2023-01-27T23:01:56.690Z,101199.61
2023-01-27T23:04:24.373Z,101194.81
2023-01-27T23:06:52.139Z,101197.46
2023-01-27T23:09:19.791Z,101199.66
2023-01-27T23:11:47.615Z,101190.71
2023-01-27T23:14:15.257Z,101195.05
2023-01-27T23:16:42.963Z,101188.19
2023-01-27T23:19:11.019Z,101189.78
2023-01-27T23:21:38.674Z,101187.61
2023-01-27T23:24:07.757Z,101195.65
2023-01-27T23:26:35.681Z,101195.90
2023-01-27T23:29:05.186Z,101194.44
2023-01-27T23:31:36.311Z,101188.48
2023-01-27T23:34:04.087Z,101190.48
2023-01-27T23:36:31.992Z,101187.56
2023-01-27T23:38:59.672Z,101187.02
2023-01-27T23:41:27.629Z,101186.10
2023-01-27T23:43:56.581Z,101186.67
2023-01-27T23:46:25.097Z,101181.34
2023-01-27T23:48:54.808Z,101182.91
2023-01-27T23:51:22.709Z,101181.59
2023-01-27T23:53:51.178Z,101182.51
2023-01-27T23:56:20.517Z,101185.96
2023-01-27T23:58:48.470Z,101186.02
